Time;durP1;ratioP1;P1;durP2;ratioP2;P2;SDS_P1;SDS_P2;PMS_P1;PMS_P2;Temp;Humidity;BMP_temperature;BMP_pressure;BME280_temperature;BME280_humidity;BME280_pressure;Samples;Min_cycle;Max_cycle;Signal;HPM_P1;HPM_P2
2021/09/23 00:00:05;;;;;;;25.65;17.15;;;13.00;99.90;;;;;;5053054;28;20523;-76
2021/09/23 00:05:11;;;;;;;24.35;17.88;;;13.10;99.90;;;;;;5052915;28;20090;-74
2021/09/23 00:07:38;;;;;;;25.50;18.00;;;13.10;99.90;;;;;;5053037;28;20063;-76
2021/09/23 00:10:04;;;;;;;27.80;18.60;;;13.00;99.90;;;;;;5052289;28;20039;-76
2021/09/23 00:12:30;;;;;;;23.98;16.98;;;13.00;99.90;;;;;;5052916;28;20447;-77
2021/09/23 00:14:55;;;;;;;28.85;17.92;;;13.00;99.90;;;;;;5053139;28;20067;-74
2021/09/23 00:17:21;;;;;;;26.58;17.45;;;13.00;99.90;;;;;;5052229;28;20017;-76
2021/09/23 00:19:46;;;;;;;28.50;19.25;;;13.10;99.90;;;;;;5052890;28;20036;-77
2021/09/23 00:22:12;;;;;;;30.42;18.50;;;13.00;99.90;;;;;;5052769;28;20017;-76
2021/09/23 00:24:38;;;;;;;25.45;17.80;;;13.10;99.90;;;;;;5052096;28;20033;-77
2021/09/23 00:27:03;;;;;;;24.13;17.27;;;13.10;99.90;;;;;;5052703;28;20086;-76
2021/09/23 00:29:29;;;;;;;24.90;17.25;;;13.10;99.90;;;;;;5052727;28;20032;-76
2021/09/23 00:31:54;;;;;;;26.08;17.42;;;13.10;99.90;;;;;;5052207;28;20104;-76
2021/09/23 00:34:20;;;;;;;29.17;17.48;;;13.10;99.90;;;;;;5051404;28;20082;-77
2021/09/23 00:36:46;;;;;;;27.48;17.17;;;13.10;99.90;;;;;;5052779;28;20183;-76
2021/09/23 00:39:11;;;;;;;26.23;16.63;;;13.10;99.90;;;;;;5052011;28;20037;-76
2021/09/23 00:41:37;;;;;;;26.25;18.00;;;13.10;99.90;;;;;;5052471;28;20037;-76
2021/09/23 00:44:16;;;;;;;28.90;18.00;;;13.10;99.90;;;;;;5052782;28;20044;-76
2021/09/23 00:46:43;;;;;;;27.20;17.65;;;13.10;99.90;;;;;;5054228;28;20488;-75
2021/09/23 00:49:09;;;;;;;29.17;18.15;;;13.10;99.90;;;;;;5052896;28;20053;-76
2021/09/23 00:51:34;;;;;;;25.15;17.67;;;13.10;99.90;;;;;;5051974;28;20536;-75
2021/09/23 00:54:02;;;;;;;24.60;17.63;;;14.10;99.90;;;;;;5052553;28;20531;-77
2021/09/23 00:56:27;;;;;;;29.90;18.65;;;13.10;99.90;;;;;;5055186;28;20025;-76
2021/09/23 00:58:53;;;;;;;29.33;18.10;;;13.00;99.90;;;;;;5054180;28;20020;-75
2021/09/23 01:01:18;;;;;;;30.08;18.85;;;13.10;99.90;;;;;;5053419;28;20550;-74
2021/09/23 01:03:44;;;;;;;28.45;18.98;;;13.10;99.90;;;;;;5052606;28;20064;-75
2021/09/23 01:06:10;;;;;;;33.60;18.55;;;13.10;99.90;;;;;;5051770;28;20025;-75
2021/09/23 01:08:39;;;;;;;26.65;18.75;;;13.10;99.90;;;;;;5052300;28;20103;-75
2021/09/23 01:11:05;;;;;;;27.30;18.20;;;13.10;99.90;;;;;;5052539;28;20025;-76
2021/09/23 01:13:31;;;;;;;29.20;18.23;;;13.10;99.90;;;;;;5051819;28;20075;-76
2021/09/23 01:15:56;;;;;;;24.52;17.15;;;13.00;99.90;;;;;;5052444;28;20021;-75
2021/09/23 01:18:23;;;;;;;25.90;17.08;;;13.00;99.90;;;;;;5056302;28;20031;-76
2021/09/23 01:20:49;;;;;;;28.42;18.90;;;13.00;99.90;;;;;;5055420;28;20424;-76
2021/09/23 01:23:15;;;;;;;24.30;18.13;;;12.90;99.90;;;;;;5055792;28;20384;-75
2021/09/23 01:25:40;;;;;;;36.90;18.75;;;12.90;99.90;;;;;;5056176;28;20040;-76
2021/09/23 01:28:06;;;;;;;26.25;18.60;;;12.90;99.90;;;;;;5055554;28;20017;-75
2021/09/23 01:30:32;;;;;;;37.05;21.00;;;12.80;99.90;;;;;;5056267;28;20242;-76
2021/09/23 01:32:58;;;;;;;27.85;17.67;;;12.80;99.90;;;;;;5055916;28;20499;-76
2021/09/23 01:35:23;;;;;;;27.23;18.88;;;12.80;99.90;;;;;;5055217;28;20134;-76
2021/09/23 01:37:49;;;;;;;33.35;19.70;;;12.80;99.90;;;;;;5055784;28;20039;-76
2021/09/23 01:40:15;;;;;;;29.48;19.13;;;12.80;99.90;;;;;;5055924;28;20118;-77
2021/09/23 01:42:44;;;;;;;29.42;18.90;;;12.80;99.90;;;;;;5055054;28;20029;-77
2021/09/23 01:45:13;;;;;;;29.33;20.45;;;12.80;99.90;;;;;;5055710;28;20037;-76
2021/09/23 01:47:39;;;;;;;32.10;20.30;;;12.80;99.90;;;;;;5055639;28;20374;-76
2021/09/23 01:50:05;;;;;;;30.60;20.42;;;12.80;99.90;;;;;;5054862;28;20031;-76
2021/09/23 01:52:30;;;;;;;28.38;19.30;;;12.80;99.90;;;;;;5055801;28;20040;-76
2021/09/23 01:54:56;;;;;;;28.60;20.13;;;12.80;99.90;;;;;;5054731;28;20028;-75
2021/09/23 01:57:22;;;;;;;31.15;21.52;;;12.80;99.90;;;;;;5055675;28;20025;-76
2021/09/23 01:59:47;;;;;;;30.88;20.50;;;12.80;99.90;;;;;;5055297;28;20029;-76
2021/09/23 02:02:13;;;;;;;33.67;20.50;;;12.80;99.90;;;;;;5054630;28;20027;-76
2021/09/23 02:04:38;;;;;;;34.67;21.33;;;12.80;99.90;;;;;;5055168;28;20362;-75
2021/09/23 02:07:05;;;;;;;37.70;23.15;;;12.80;99.90;;;;;;5055452;28;20465;-75
2021/09/23 02:09:32;;;;;;;31.70;20.88;;;12.70;99.90;;;;;;5054575;28;20436;-75
2021/09/23 02:12:00;;;;;;;38.20;22.42;;;12.70;99.90;;;;;;5055281;28;20025;-74
2021/09/23 02:14:25;;;;;;;35.38;22.98;;;12.70;99.90;;;;;;5055333;28;20028;-75
2021/09/23 02:16:51;;;;;;;36.58;23.58;;;12.70;99.90;;;;;;5054556;28;20021;-75
2021/09/23 02:19:16;;;;;;;35.63;22.95;;;12.70;99.90;;;;;;5055200;28;20044;-76
2021/09/23 02:21:42;;;;;;;36.20;22.73;;;12.60;99.90;;;;;;5055720;28;20125;-76
2021/09/23 02:24:07;;;;;;;38.33;23.83;;;12.70;99.90;;;;;;5054574;28;20029;-76
2021/09/23 02:26:33;;;;;;;32.45;22.88;;;12.60;99.90;;;;;;5055088;28;20096;-76
2021/09/23 02:28:58;;;;;;;36.08;23.42;;;12.60;99.90;;;;;;5054861;28;20142;-76
2021/09/23 02:31:24;;;;;;;46.63;24.33;;;12.60;99.90;;;;;;5054252;28;20116;-77
2021/09/23 02:33:49;;;;;;;35.78;22.98;;;12.60;99.90;;;;;;5054794;28;20064;-76
2021/09/23 02:36:15;;;;;;;36.05;23.65;;;12.60;99.90;;;;;;5055162;28;20053;-76
2021/09/23 02:38:40;;;;;;;35.92;23.02;;;12.60;99.90;;;;;;5054815;28;20056;-76
2021/09/23 02:41:06;;;;;;;36.15;23.17;;;12.50;99.90;;;;;;5054886;28;20072;-76
2021/09/23 02:43:32;;;;;;;33.17;23.73;;;12.50;99.90;;;;;;5054719;28;20060;-76
2021/09/23 02:46:00;;;;;;;36.78;24.13;;;12.50;99.90;;;;;;5053937;28;20083;-77
2021/09/23 02:48:26;;;;;;;37.45;24.08;;;12.50;99.90;;;;;;5054595;28;20025;-77
2021/09/23 02:50:51;;;;;;;36.85;24.35;;;12.50;99.90;;;;;;5054533;28;20029;-76
2021/09/23 02:53:17;;;;;;;35.47;23.33;;;12.50;99.90;;;;;;5053973;28;20389;-76
2021/09/23 02:55:43;;;;;;;35.58;23.50;;;12.50;99.90;;;;;;5054541;28;20439;-75
2021/09/23 02:58:08;;;;;;;44.20;24.35;;;12.50;99.90;;;;;;5053801;28;20100;-75
2021/09/23 03:00:34;;;;;;;36.40;24.08;;;12.50;99.90;;;;;;5054246;28;20059;-75
2021/09/23 03:03:00;;;;;;;38.00;25.13;;;12.50;99.90;;;;;;5054181;28;20044;-75
2021/09/23 03:05:25;;;;;;;42.13;25.67;;;12.50;99.90;;;;;;5053350;28;20040;-77
2021/09/23 03:07:51;;;;;;;38.92;24.73;;;12.50;99.90;;;;;;5054118;28;20017;-77
2021/09/23 03:10:16;;;;;;;41.28;25.38;;;12.50;99.90;;;;;;5054330;28;20032;-77
2021/09/23 03:12:42;;;;;;;38.75;25.70;;;12.50;99.90;;;;;;5055833;28;20032;-77
2021/09/23 03:15:08;;;;;;;47.50;27.65;;;12.50;99.90;;;;;;5054519;28;20028;-77
2021/09/23 03:17:34;;;;;;;47.65;28.73;;;12.60;99.90;;;;;;5053993;28;20032;-76
2021/09/23 03:19:59;;;;;;;49.60;27.38;;;12.60;99.90;;;;;;5053133;28;20385;-76
2021/09/23 03:22:26;;;;;;;41.65;28.25;;;12.60;99.90;;;;;;5055669;28;20029;-77
2021/09/23 03:24:52;;;;;;;46.50;29.23;;;12.60;99.90;;;;;;5055684;28;20083;-76
2021/09/23 03:27:18;;;;;;;43.10;28.63;;;12.70;99.90;;;;;;5053860;28;20099;-76
2021/09/23 03:29:44;;;;;;;48.70;30.02;;;12.70;99.90;;;;;;5053786;28;20029;-76
2021/09/23 03:32:10;;;;;;;51.88;30.65;;;12.80;99.90;;;;;;5053687;28;20036;-76
2021/09/23 03:34:36;;;;;;;49.80;30.63;;;12.80;99.90;;;;;;5052853;28;20028;-76
2021/09/23 03:37:01;;;;;;;51.03;32.72;;;12.80;99.90;;;;;;5053738;28;20082;-76
2021/09/23 03:39:27;;;;;;;56.00;30.95;;;12.80;99.90;;;;;;5053173;28;20021;-76
2021/09/23 03:41:53;;;;;;;52.55;33.42;;;12.80;99.90;;;;;;5052637;28;20156;-76
2021/09/23 03:44:18;;;;;;;51.17;34.70;;;12.80;99.90;;;;;;5053438;28;20033;-75
2021/09/23 03:46:44;;;;;;;50.42;33.45;;;12.80;99.90;;;;;;5053340;28;20484;-76
2021/09/23 03:49:10;;;;;;;53.40;34.38;;;12.80;99.90;;;;;;5052582;28;20028;-78
2021/09/23 03:51:35;;;;;;;57.08;33.50;;;12.80;99.90;;;;;;5053202;28;20017;-78
2021/09/23 03:54:01;;;;;;;56.10;35.65;;;12.80;99.90;;;;;;5053019;28;20028;-77
2021/09/23 03:56:27;;;;;;;60.53;36.55;;;12.90;99.90;;;;;;5052751;28;20032;-77
2021/09/23 03:58:55;;;;;;;60.65;35.88;;;12.90;99.90;;;;;;5053355;28;20021;-76
2021/09/23 04:01:21;;;;;;;57.00;36.50;;;12.90;99.90;;;;;;5053205;28;20040;-77
2021/09/23 04:03:46;;;;;;;58.40;36.15;;;12.90;99.90;;;;;;5052967;28;20044;-77
2021/09/23 04:06:12;;;;;;;62.22;37.50;;;12.90;99.90;;;;;;5053353;28;20036;-77
2021/09/23 04:08:38;;;;;;;55.85;36.00;;;12.90;99.90;;;;;;5052523;28;20029;-77
2021/09/23 04:11:03;;;;;;;55.63;37.17;;;12.90;99.90;;;;;;5053100;28;20476;-78
2021/09/23 04:13:29;;;;;;;61.75;38.13;;;12.90;99.90;;;;;;5053078;28;20071;-77
2021/09/23 04:15:54;;;;;;;63.90;39.15;;;12.90;99.90;;;;;;5052173;28;20453;-78
2021/09/23 04:18:20;;;;;;;62.95;39.17;;;12.90;99.90;;;;;;5053214;28;20028;-77
2021/09/23 04:20:47;;;;;;;62.95;37.80;;;12.90;99.90;;;;;;5053028;28;20025;-77
2021/09/23 04:23:13;;;;;;;65.65;38.10;;;12.90;99.90;;;;;;5052210;28;20082;-77
2021/09/23 04:25:39;;;;;;;65.85;41.20;;;12.90;99.90;;;;;;5052828;28;20033;-78
2021/09/23 04:28:05;;;;;;;59.38;37.75;;;12.90;99.90;;;;;;5051468;28;20028;-77
2021/09/23 04:30:31;;;;;;;62.30;39.13;;;12.90;99.90;;;;;;5052127;28;20033;-76
2021/09/23 04:32:57;;;;;;;63.17;39.65;;;12.90;99.90;;;;;;5052735;28;20452;-78
2021/09/23 04:35:22;;;;;;;71.28;41.35;;;12.90;99.90;;;;;;5052890;28;20032;-77
2021/09/23 04:37:48;;;;;;;65.90;40.83;;;12.90;99.90;;;;;;5052154;28;20074;-77
2021/09/23 04:40:13;;;;;;;66.03;40.10;;;13.20;99.90;;;;;;5052525;28;20417;-76
2021/09/23 04:42:41;;;;;;;64.85;39.90;;;12.90;99.90;;;;;;5052706;28;20032;-76
2021/09/23 04:45:08;;;;;;;74.63;41.58;;;12.90;99.90;;;;;;5052370;28;20428;-76
2021/09/23 04:47:33;;;;;;;69.15;40.47;;;12.90;99.90;;;;;;5052810;28;20094;-76
2021/09/23 04:49:59;;;;;;;68.85;40.90;;;12.90;99.90;;;;;;5052685;28;20480;-76
2021/09/23 04:52:24;;;;;;;64.35;41.38;;;12.90;99.90;;;;;;5054606;28;20440;-76
2021/09/23 04:54:50;;;;;;;67.03;39.83;;;12.90;99.90;;;;;;5056761;28;20487;-77
2021/09/23 04:57:15;;;;;;;71.78;41.95;;;12.90;99.90;;;;;;5056710;28;20469;-77
2021/09/23 04:59:41;;;;;;;69.43;40.80;;;12.90;99.90;;;;;;5055983;28;20032;-76
2021/09/23 05:02:06;;;;;;;68.40;40.83;;;12.90;99.90;;;;;;5056950;28;20021;-76
2021/09/23 05:04:32;;;;;;;69.70;41.53;;;12.90;99.90;;;;;;5056612;28;20044;-77
2021/09/23 05:06:58;;;;;;;64.72;39.50;;;12.90;99.90;;;;;;5055872;28;20017;-76
2021/09/23 05:09:23;;;;;;;69.22;41.33;;;12.80;99.90;;;;;;5056551;28;20029;-77
2021/09/23 05:11:49;;;;;;;74.40;43.13;;;12.80;99.90;;;;;;5055596;28;20053;-76
2021/09/23 05:14:17;;;;;;;80.75;44.53;;;12.80;99.90;;;;;;5056062;28;20056;-76
2021/09/23 05:16:44;;;;;;;74.75;43.08;;;12.80;99.90;;;;;;5056489;28;20021;-76
2021/09/23 05:19:10;;;;;;;69.30;41.20;;;12.80;99.90;;;;;;5055431;28;20040;-76
2021/09/23 05:21:36;;;;;;;75.03;45.40;;;12.80;99.90;;;;;;5055556;28;20382;-77
2021/09/23 05:24:01;;;;;;;80.20;45.17;;;12.80;99.90;;;;;;5056453;28;20035;-77
2021/09/23 05:26:27;;;;;;;82.65;46.60;;;12.80;99.90;;;;;;5055273;28;20048;-77
2021/09/23 05:28:53;;;;;;;77.20;44.90;;;12.80;99.90;;;;;;5056000;28;20032;-77
2021/09/23 05:31:18;;;;;;;77.68;44.40;;;12.80;99.90;;;;;;5056402;28;20029;-77
2021/09/23 05:33:44;;;;;;;84.00;46.47;;;12.80;99.90;;;;;;5055688;28;20443;-77
2021/09/23 05:36:10;;;;;;;82.22;45.08;;;12.90;99.90;;;;;;5058607;28;20377;-75
2021/09/23 05:38:36;;;;;;;81.25;46.58;;;12.90;99.90;;;;;;5059012;28;20021;-76
2021/09/23 05:41:01;;;;;;;80.95;44.20;;;12.90;99.90;;;;;;5062543;28;20041;-78
2021/09/23 05:43:28;;;;;;;78.35;44.25;;;12.90;99.90;;;;;;5061850;28;20104;-76
2021/09/23 05:45:54;;;;;;;77.60;45.08;;;12.90;99.90;;;;;;5055960;28;20029;-76
2021/09/23 05:48:21;;;;;;;73.82;44.22;;;12.90;99.90;;;;;;5060012;28;20029;-77
2021/09/23 05:50:46;;;;;;;77.95;42.30;;;12.90;99.90;;;;;;5064751;28;20047;-75
2021/09/23 05:53:12;;;;;;;69.82;42.47;;;12.90;99.90;;;;;;5065716;28;20029;-77
2021/09/23 05:55:38;;;;;;;82.03;45.90;;;12.90;99.90;;;;;;5059755;28;20024;-77
2021/09/23 05:58:04;;;;;;;73.97;42.28;;;13.00;99.90;;;;;;5057983;28;20591;-77
2021/09/23 06:00:30;;;;;;;78.68;43.28;;;13.00;99.90;;;;;;5057599;28;20017;-77
2021/09/23 06:02:55;;;;;;;81.10;46.78;;;13.00;99.90;;;;;;5055962;28;20392;-77
2021/09/23 06:05:24;;;;;;;81.25;46.38;;;13.00;99.90;;;;;;5058751;28;20033;-78
2021/09/23 06:07:49;;;;;;;90.05;44.90;;;13.10;99.90;;;;;;5059767;28;20033;-76
2021/09/23 06:10:15;;;;;;;78.40;45.97;;;13.20;99.90;;;;;;5057315;28;20027;-76
2021/09/23 06:12:41;;;;;;;79.90;45.53;;;13.30;99.90;;;;;;5056263;28;20111;-75
2021/09/23 06:15:08;;;;;;;88.25;47.42;;;13.40;99.90;;;;;;5056104;28;20029;-78
2021/09/23 06:17:34;;;;;;;79.97;43.63;;;13.50;99.90;;;;;;5057937;28;20025;-76
2021/09/23 06:20:00;;;;;;;79.95;43.50;;;13.60;99.90;;;;;;5057793;28;20029;-77
2021/09/23 06:22:26;;;;;;;85.68;45.97;;;13.70;99.90;;;;;;5056037;28;20060;-77
2021/09/23 06:24:51;;;;;;;77.15;44.45;;;13.80;99.90;;;;;;5055338;28;20078;-77
2021/09/23 06:27:17;;;;;;;77.97;45.60;;;13.90;99.90;;;;;;5055280;28;20025;-75
2021/09/23 06:29:43;;;;;;;74.18;42.90;;;14.00;99.90;;;;;;5054910;28;20116;-77
2021/09/23 06:32:08;;;;;;;77.32;43.75;;;14.10;99.90;;;;;;5055308;28;20140;-78
2021/09/23 06:34:34;;;;;;;74.57;41.80;;;14.20;99.90;;;;;;5055605;28;20112;-78
2021/09/23 06:36:59;;;;;;;74.10;44.15;;;14.20;99.90;;;;;;5054310;28;20021;-78
2021/09/23 06:39:25;;;;;;;75.50;41.25;;;14.40;99.90;;;;;;5055208;28;20434;-76
2021/09/23 06:41:51;;;;;;;74.43;41.42;;;14.40;99.90;;;;;;5054608;28;20615;-78
2021/09/23 06:44:16;;;;;;;70.68;41.85;;;14.40;99.90;;;;;;5054180;28;20086;-77
2021/09/23 06:46:42;;;;;;;79.80;43.17;;;14.40;99.90;;;;;;5055074;28;20044;-77
2021/09/23 06:49:07;;;;;;;74.70;40.55;;;14.40;99.90;;;;;;5054957;28;20045;-76
2021/09/23 06:51:33;;;;;;;72.93;42.15;;;14.40;99.90;;;;;;5054444;28;20021;-77
2021/09/23 06:53:59;;;;;;;68.93;42.53;;;14.40;99.90;;;;;;5054612;28;20029;-78
2021/09/23 06:56:24;;;;;;;76.40;43.63;;;14.50;99.90;;;;;;5055069;28;20057;-77
2021/09/23 06:58:50;;;;;;;71.78;41.92;;;14.50;99.90;;;;;;5054169;28;20024;-76
2021/09/23 07:01:16;;;;;;;84.45;44.88;;;14.60;99.90;;;;;;5054796;28;20025;-77
2021/09/23 07:03:41;;;;;;;75.40;44.25;;;14.60;99.90;;;;;;5054431;28;20025;-77
2021/09/23 07:06:07;;;;;;;77.13;43.63;;;14.60;99.90;;;;;;5053599;28;20513;-77
2021/09/23 07:08:33;;;;;;;70.38;41.88;;;14.60;99.90;;;;;;5054387;28;20025;-78
2021/09/23 07:10:58;;;;;;;75.18;43.25;;;14.70;99.90;;;;;;5055004;28;20057;-77
2021/09/23 07:13:24;;;;;;;72.57;41.80;;;14.80;99.90;;;;;;5053909;28;20025;-78
2021/09/23 07:15:50;;;;;;;68.95;40.50;;;14.90;99.90;;;;;;5053853;28;20028;-78
2021/09/23 07:18:15;;;;;;;72.75;40.58;;;15.00;99.90;;;;;;5054355;28;20108;-77
2021/09/23 07:20:41;;;;;;;70.45;40.15;;;15.00;99.90;;;;;;5053518;28;20028;-76
2021/09/23 07:23:07;;;;;;;71.93;41.13;;;15.10;99.90;;;;;;5054031;28;20029;-77
2021/09/23 07:25:38;;;;;;;70.45;40.88;;;15.10;99.90;;;;;;5053157;28;20053;-78
2021/09/23 07:28:04;;;;;;;67.18;39.65;;;15.00;99.90;;;;;;5054233;28;20032;-77
2021/09/23 07:30:30;;;;;;;73.43;39.67;;;15.10;99.90;;;;;;5054036;28;20032;-77
2021/09/23 07:32:55;;;;;;;67.53;40.30;;;15.10;99.90;;;;;;5053678;28;20052;-78
2021/09/23 07:35:21;;;;;;;62.80;35.72;;;15.20;99.90;;;;;;5053943;28;20465;-77
2021/09/23 07:37:46;;;;;;;57.92;36.28;;;15.20;99.90;;;;;;5053892;28;20025;-76
2021/09/23 07:40:12;;;;;;;52.55;32.50;;;15.30;99.90;;;;;;5052926;28;20086;-76
2021/09/23 07:42:39;;;;;;;60.50;32.28;;;15.30;99.90;;;;;;5054086;28;20447;-77
2021/09/23 07:45:06;;;;;;;54.50;32.85;;;15.40;99.90;;;;;;5054139;28;20036;-77
2021/09/23 07:47:32;;;;;;;46.78;28.55;;;15.40;99.90;;;;;;5054434;28;20048;-77
2021/09/23 07:49:57;;;;;;;49.75;29.30;;;15.30;99.90;;;;;;5058201;28;20025;-76
2021/09/23 07:52:23;;;;;;;46.03;26.33;;;15.50;99.90;;;;;;5055366;28;20424;-77
2021/09/23 07:54:52;;;;;;;40.83;26.23;;;15.50;99.90;;;;;;5052884;28;20512;-77
2021/09/23 07:57:18;;;;;;;42.15;24.50;;;15.70;99.90;;;;;;5053471;28;20441;-77
2021/09/23 07:59:44;;;;;;;43.92;25.45;;;15.70;99.90;;;;;;5053728;28;20146;-77
2021/09/23 08:02:10;;;;;;;41.08;23.42;;;15.80;99.90;;;;;;5052799;28;20369;-77
2021/09/23 08:04:35;;;;;;;41.67;24.45;;;15.80;99.90;;;;;;5053983;28;20168;-77
2021/09/23 08:07:01;;;;;;;34.03;22.67;;;15.90;99.90;;;;;;5054160;28;20021;-77
2021/09/23 08:09:26;;;;;;;38.38;22.67;;;16.00;99.90;;;;;;5052966;28;20029;-76
2021/09/23 08:11:52;;;;;;;33.28;21.45;;;16.10;99.90;;;;;;5053700;28;20053;-77
2021/09/23 08:14:18;;;;;;;31.20;20.65;;;16.20;99.90;;;;;;5054544;28;20049;-76
2021/09/23 08:16:44;;;;;;;31.10;19.85;;;16.20;99.90;;;;;;5054334;28;20086;-77
2021/09/23 08:19:10;;;;;;;34.78;20.55;;;16.40;99.90;;;;;;5053401;28;20020;-78
2021/09/23 08:21:39;;;;;;;27.65;20.27;;;16.50;99.90;;;;;;5053229;28;20021;-77
2021/09/23 08:24:05;;;;;;;30.95;20.67;;;16.50;99.90;;;;;;5053098;28;20134;-78
2021/09/23 08:26:31;;;;;;;31.13;20.15;;;16.70;99.90;;;;;;5053801;28;20421;-78
2021/09/23 08:28:56;;;;;;;29.75;19.52;;;16.80;99.90;;;;;;5052624;28;20024;-77
2021/09/23 08:31:23;;;;;;;32.65;20.02;;;16.90;99.90;;;;;;5052903;28;20029;-77
2021/09/23 08:33:50;;;;;;;32.88;20.23;;;17.00;99.90;;;;;;5053011;28;20398;-78
2021/09/23 08:36:16;;;;;;;39.28;20.77;;;17.10;99.90;;;;;;5052201;28;20029;-78
2021/09/23 08:38:41;;;;;;;30.92;20.25;;;17.10;99.90;;;;;;5052863;28;20484;-77
2021/09/23 08:41:07;;;;;;;31.73;20.08;;;17.20;99.90;;;;;;5052812;28;20105;-77
2021/09/23 08:43:34;;;;;;;28.65;18.85;;;17.20;99.90;;;;;;5052106;28;20025;-77
2021/09/23 08:46:02;;;;;;;26.45;17.17;;;17.20;99.90;;;;;;5053250;28;20040;-77
2021/09/23 08:48:28;;;;;;;23.48;16.35;;;17.30;99.90;;;;;;5053139;28;20086;-79
2021/09/23 08:50:53;;;;;;;25.42;17.02;;;17.30;99.90;;;;;;5053335;28;20029;-78
2021/09/23 08:53:19;;;;;;;24.27;15.27;;;17.30;99.90;;;;;;5055792;28;20025;-77
2021/09/23 08:55:45;;;;;;;22.30;14.63;;;17.40;99.90;;;;;;5055278;28;20043;-77
2021/09/23 08:58:11;;;;;;;18.10;13.23;;;17.40;99.90;;;;;;5052837;28;20465;-76
2021/09/23 09:00:57;;;;;;;28.40;14.23;;;17.50;99.90;;;;;;5053509;28;20036;-78
2021/09/23 09:03:25;;;;;;;20.10;14.07;;;17.50;99.90;;;;;;5053241;28;20032;-78
2021/09/23 09:05:53;;;;;;;25.08;13.90;;;17.60;99.90;;;;;;5053459;28;20063;-77
2021/09/23 09:08:21;;;;;;;18.58;13.77;;;17.60;99.90;;;;;;5054433;28;20025;-78
2021/09/23 09:10:47;;;;;;;19.30;12.45;;;17.60;99.90;;;;;;5053957;28;20025;-78
2021/09/23 09:13:12;;;;;;;17.50;13.25;;;17.60;99.90;;;;;;5052170;28;20481;-77
2021/09/23 09:15:41;;;;;;;19.48;12.95;;;17.70;99.90;;;;;;5052816;28;20068;-78
2021/09/23 09:18:18;;;;;;;12.82;8.50;;;17.80;99.90;;;;;;5052218;28;20028;-77
2021/09/23 09:20:59;;;;;;;12.77;5.28;;;17.90;99.90;;;;;;5052803;28;20080;-77
2021/09/23 09:23:31;;;;;;;12.63;5.07;;;18.00;99.90;;;;;;5052632;28;20033;-76
2021/09/23 09:25:57;;;;;;;9.40;4.47;;;18.00;99.90;;;;;;5051881;28;20179;-76
2021/09/23 09:28:23;;;;;;;9.15;4.07;;;18.00;99.90;;;;;;5052387;28;20457;-77
2021/09/23 09:31:00;;;;;;;7.15;4.53;;;18.10;99.90;;;;;;5052469;28;20029;-77
2021/09/23 09:33:41;;;;;;;7.60;4.63;;;18.10;99.90;;;;;;5052079;28;20025;-79
2021/09/23 09:36:27;;;;;;;7.93;3.97;;;18.10;99.90;;;;;;5052242;28;20485;-77
2021/09/23 09:38:55;;;;;;;7.28;3.40;;;18.10;99.90;;;;;;5055465;28;20025;-77
2021/09/23 09:41:36;;;;;;;8.63;3.10;;;18.20;99.90;;;;;;5055341;28;20049;-77
2021/09/23 09:44:03;;;;;;;;;;;18.30;99.90;;;;;;5056489;28;20029;-77
2021/09/23 09:46:31;;;;;;;11.40;3.80;;;18.40;99.90;;;;;;5055456;28;19999;-76
2021/09/23 09:48:58;;;;;;;5.35;3.65;;;18.50;99.90;;;;;;5055966;28;20151;-77
2021/09/23 09:51:38;;;;;;;7.85;3.28;;;18.60;99.90;;;;;;5055683;28;20469;-78
2021/09/23 09:54:05;;;;;;;10.35;3.45;;;18.80;99.90;;;;;;5055499;28;20029;-78
2021/09/23 09:56:31;;;;;;;9.30;3.28;;;18.90;99.90;;;;;;5056239;28;20029;-78
2021/09/23 09:59:12;;;;;;;7.30;3.80;;;18.90;99.90;;;;;;5056061;28;20031;-78
2021/09/23 10:01:43;;;;;;;6.25;3.50;;;18.90;99.90;;;;;;5055672;28;20029;-78
2021/09/23 10:04:11;;;;;;;3.90;2.97;;;18.90;99.90;;;;;;5056077;28;20037;-78
2021/09/23 10:06:44;;;;;;;6.65;3.35;;;18.90;99.90;;;;;;5055972;28;20028;-78
2021/09/23 10:09:12;;;;;;;6.10;3.00;;;18.90;99.90;;;;;;5055104;28;20021;-77
2021/09/23 10:11:42;;;;;;;6.05;3.50;;;18.80;99.90;;;;;;5055785;28;20028;-78
2021/09/23 10:14:09;;;;;;;;;;;18.70;99.90;;;;;;5055552;28;20515;-78
2021/09/23 10:16:35;;;;;;;5.18;2.90;;;18.70;99.90;;;;;;5056402;28;19923;-78
2021/09/23 10:19:01;;;;;;;7.82;2.85;;;18.60;99.90;;;;;;5055630;28;20025;-77
2021/09/23 10:21:30;;;;;;;4.38;2.55;;;18.60;99.90;;;;;;5054722;28;20021;-77
2021/09/23 10:23:56;;;;;;;5.60;2.80;;;19.00;99.90;;;;;;5055512;28;20492;-78
2021/09/23 10:26:26;;;;;;;5.97;3.50;;;18.60;99.90;;;;;;5057012;28;20056;-78
2021/09/23 10:28:55;;;;;;;5.65;3.00;;;18.50;99.90;;;;;;5054584;28;20043;-77
2021/09/23 10:31:24;;;;;;;7.10;3.08;;;18.40;99.90;;;;;;5056296;28;20396;-78
2021/09/23 10:33:50;;;;;;;6.25;3.10;;;18.40;99.90;;;;;;5055533;28;20104;-76
2021/09/23 10:36:20;;;;;;;8.55;3.22;;;18.30;99.90;;;;;;5054464;28;20080;-77
2021/09/23 10:38:46;;;;;;;4.18;3.28;;;18.40;99.90;;;;;;5055437;28;20017;-76
2021/09/23 10:41:13;;;;;;;3.10;2.55;;;18.40;99.90;;;;;;5055326;28;20049;-77
2021/09/23 10:43:42;;;;;;;4.38;2.42;;;18.50;99.90;;;;;;5054613;28;20025;-78
2021/09/23 10:46:10;;;;;;;6.75;2.92;;;18.40;99.90;;;;;;5054826;28;20120;-77
2021/09/23 10:48:36;;;;;;;4.82;3.03;;;18.50;99.90;;;;;;5053268;28;20025;-77
2021/09/23 10:51:05;;;;;;;5.15;3.38;;;18.50;99.90;;;;;;5053844;28;20532;-77
2021/09/23 10:53:34;;;;;;;8.30;3.70;;;18.60;99.90;;;;;;5054604;28;20052;-78
2021/09/23 10:56:09;;;;;;;7.30;3.42;;;18.60;99.90;;;;;;5054356;28;20481;-78
2021/09/23 10:58:39;;;;;;;5.43;3.30;;;18.70;99.90;;;;;;5054036;28;20035;-78
2021/09/23 11:01:05;;;;;;;;;;;18.80;99.90;;;;;;5055116;28;20029;-79
2021/09/23 11:03:40;;;;;;;4.07;3.40;;;18.80;99.90;;;;;;5053700;28;19905;-79
2021/09/23 11:06:10;;;;;;;9.93;4.05;;;18.60;99.90;;;;;;5054522;28;20051;-77
2021/09/23 11:08:41;;;;;;;4.60;3.35;;;18.60;99.90;;;;;;5054405;28;20018;-79
2021/09/23 11:11:10;;;;;;;;;;;18.60;99.90;;;;;;5054052;28;20525;-76
2021/09/23 11:13:38;;;;;;;6.18;3.22;;;18.70;99.90;;;;;;5054456;28;19905;-77
2021/09/23 11:16:07;;;;;;;7.30;3.28;;;18.80;99.90;;;;;;5054507;28;20024;-78
2021/09/23 11:18:34;;;;;;;5.15;2.78;;;18.90;99.90;;;;;;5053535;28;20025;-77
2021/09/23 11:21:00;;;;;;;6.60;2.90;;;19.00;99.90;;;;;;5054220;28;20473;-77
2021/09/23 11:23:26;;;;;;;4.35;3.10;;;19.10;99.90;;;;;;5054433;28;20031;-78
2021/09/23 11:25:54;;;;;;;7.65;2.60;;;19.20;99.90;;;;;;5053192;28;20552;-76
2021/09/23 11:28:22;;;;;;;10.10;3.25;;;19.40;99.90;;;;;;5054061;28;20108;-76
2021/09/23 11:30:51;;;;;;;8.13;2.80;;;19.60;99.90;;;;;;5054144;28;20074;-77
2021/09/23 11:33:17;;;;;;;4.95;2.35;;;19.90;99.90;;;;;;5053590;28;20548;-78
2021/09/23 11:35:45;;;;;;;5.47;2.22;;;20.10;99.90;;;;;;5053836;28;20032;-77
2021/09/23 11:38:15;;;;;;;3.97;2.00;;;20.20;99.90;;;;;;5053894;28;20025;-77
2021/09/23 11:40:43;;;;;;;8.43;2.80;;;20.30;99.90;;;;;;5053238;28;20049;-77
2021/09/23 11:43:11;;;;;;;12.05;2.25;;;20.30;99.90;;;;;;5053809;28;20032;-78
2021/09/23 11:45:40;;;;;;;2.05;1.63;;;20.30;99.90;;;;;;5052889;28;20064;-77
2021/09/23 11:48:10;;;;;;;5.50;2.05;;;20.30;99.90;;;;;;5053728;28;20067;-77
2021/09/23 11:50:40;;;;;;;10.48;2.00;;;20.30;99.90;;;;;;5053719;28;20063;-77
2021/09/23 11:53:29;;;;;;;4.95;1.75;;;20.30;99.90;;;;;;5052670;28;20472;-77
2021/09/23 11:56:08;;;;;;;6.18;1.60;;;20.30;99.90;;;;;;5053435;28;20025;-77
2021/09/23 11:58:38;;;;;;;8.80;1.95;;;20.30;99.90;;;;;;5053244;28;20039;-76
2021/09/23 12:01:05;;;;;;;2.92;1.30;;;20.20;99.90;;;;;;5052087;28;20049;-78
2021/09/23 12:03:37;;;;;;;4.38;1.63;;;20.20;99.90;;;;;;5053562;28;20397;-77
2021/09/23 12:06:02;;;;;;;5.35;2.10;;;20.20;99.90;;;;;;5054013;28;20029;-78
2021/09/23 12:08:29;;;;;;;3.90;1.65;;;20.20;99.90;;;;;;5052673;28;20024;-78
2021/09/23 12:11:03;;;;;;;3.25;1.23;;;20.20;99.90;;;;;;5053148;28;20033;-79
2021/09/23 12:13:39;;;;;;;7.80;1.67;;;20.30;99.90;;;;;;5053415;28;20469;-78
2021/09/23 12:16:16;;;;;;;4.07;1.60;;;20.30;99.90;;;;;;5052475;28;20037;-76
2021/09/23 12:18:43;;;;;;;5.63;1.60;;;20.30;99.90;;;;;;5053354;28;20075;-76
2021/09/23 12:21:14;;;;;;;7.70;1.70;;;20.10;99.90;;;;;;5057769;28;20104;-78
2021/09/23 12:23:52;;;;;;;7.32;2.33;;;20.00;99.90;;;;;;5056144;28;20090;-77
2021/09/23 12:26:19;;;;;;;7.50;1.92;;;20.00;99.90;;;;;;5053925;28;20047;-77
2021/09/23 12:29:06;;;;;;;4.65;2.20;;;19.90;99.90;;;;;;5052477;28;20029;-76
2021/09/23 12:31:37;;;;;;;9.70;2.55;;;19.90;99.90;;;;;;5053472;28;20025;-78
2021/09/23 12:34:15;;;;;;;6.03;2.90;;;20.00;99.90;;;;;;5053206;28;20021;-77